createdAt,value
2018-11-22T12:16:09.129Z,28.63
2018-11-22T12:18:12.747Z,29.37
2018-11-22T12:20:17.805Z,30.30
2018-11-22T12:22:23.327Z,30.97
2018-11-22T12:24:29.045Z,28.93
2018-11-22T12:26:34.427Z,30.53
2018-11-22T12:28:40.222Z,31.70
2018-11-22T12:30:44.757Z,30.63
2018-11-22T12:32:54.808Z,30.47
2018-11-22T12:35:01.402Z,31.20
2018-11-22T12:37:08.053Z,30.73
2018-11-22T12:39:15.445Z,31.07
2018-11-22T12:41:20.104Z,30.43
2018-11-22T12:43:25.533Z,31.43
2018-11-22T12:45:30.528Z,30.93
2018-11-22T12:47:40.669Z,32.03
2018-11-22T12:49:44.881Z,30.17
2018-11-22T12:51:48.476Z,31.00
2018-11-22T12:53:52.257Z,30.77
2018-11-22T12:55:55.813Z,30.87
2018-11-22T12:57:59.418Z,30.80
2018-11-22T13:00:03.152Z,30.27
2018-11-22T13:02:06.771Z,31.30
2018-11-22T13:04:10.478Z,33.00
2018-11-22T13:06:15.424Z,32.57
2018-11-22T13:08:19.185Z,28.40
2018-11-22T13:10:22.829Z,27.87
2018-11-22T13:12:26.397Z,28.17
2018-11-22T13:14:29.959Z,28.97
2018-11-22T13:16:33.706Z,28.67
2018-11-22T13:18:37.305Z,30.20
2018-11-22T13:20:40.858Z,29.43
2018-11-22T13:22:44.607Z,29.87
2018-11-22T13:24:49.021Z,30.97
2018-11-22T13:26:52.769Z,29.73
2018-11-22T13:28:56.497Z,30.23
2018-11-22T13:31:00.101Z,30.43
2018-11-22T13:33:03.911Z,29.40
2018-11-22T13:35:09.044Z,32.43
2018-11-22T13:37:12.665Z,30.53
2018-11-22T13:39:16.285Z,29.50
2018-11-22T13:41:20.905Z,31.07
2018-11-22T13:43:23.650Z,29.93
2018-11-22T13:45:28.581Z,29.67
2018-11-22T13:47:32.197Z,30.67
2018-11-22T13:49:35.740Z,28.77
2018-11-22T13:51:39.643Z,31.73
2018-11-22T13:53:43.580Z,30.30
2018-11-22T13:55:47.156Z,29.07
2018-11-22T13:57:50.752Z,30.33
2018-11-22T13:59:58.334Z,30.57
2018-11-22T14:01:58.505Z,30.17
2018-11-22T14:04:02.116Z,29.97
2018-11-22T14:06:05.809Z,30.67
2018-11-22T14:08:09.379Z,31.47
2018-11-22T14:10:14.000Z,30.93
2018-11-22T14:12:17.752Z,28.33
2018-11-22T14:14:21.367Z,29.33
2018-11-22T14:16:26.834Z,29.30
2018-11-22T14:18:30.428Z,29.33
2018-11-22T14:20:35.340Z,29.50
2018-11-22T14:22:39.355Z,29.97
2018-11-22T14:24:43.008Z,32.07
2018-11-22T14:26:46.777Z,30.03
2018-11-22T14:28:51.353Z,31.43
2018-11-22T14:30:55.132Z,33.27
2018-11-22T14:32:58.736Z,29.90
2018-11-22T14:35:02.389Z,29.37
2018-11-22T14:37:05.972Z,32.00
2018-11-22T14:39:09.761Z,33.97
2018-11-22T14:41:13.374Z,31.17
2018-11-22T14:43:17.378Z,31.20
2018-11-22T14:45:22.197Z,31.30
2018-11-22T14:47:26.022Z,30.53
2018-11-22T14:49:29.713Z,30.30
2018-11-22T14:51:37.869Z,31.83
2018-11-22T14:53:41.478Z,31.20
2018-11-22T14:55:45.076Z,31.17
2018-11-22T14:57:48.917Z,30.87
2018-11-22T14:59:52.708Z,31.97
2018-11-22T15:01:56.305Z,30.57
2018-11-22T15:03:59.948Z,30.63
2018-11-22T15:06:03.497Z,30.23
2018-11-22T15:08:07.359Z,31.13
2018-11-22T15:10:12.644Z,29.87
2018-11-22T15:12:16.533Z,30.50
2018-11-22T15:14:20.188Z,30.27
2018-11-22T15:16:23.815Z,31.83
2018-11-22T15:18:27.397Z,30.70
2018-11-22T15:20:30.966Z,32.43
2018-11-22T15:22:34.771Z,31.77
2018-11-22T15:24:38.412Z,33.13
2018-11-22T15:26:42.194Z,31.27
2018-11-22T15:28:45.801Z,33.37
2018-11-22T15:30:49.408Z,33.30
2018-11-22T15:32:53.085Z,35.33
2018-11-22T15:34:56.744Z,35.77
2018-11-22T15:37:00.424Z,37.03
2018-11-22T15:39:05.160Z,43.97
2018-11-22T15:41:09.883Z,46.80
2018-11-22T15:43:13.609Z,45.60
2018-11-22T15:45:19.593Z,44.87
2018-11-22T15:47:23.168Z,42.17
2018-11-22T15:49:26.713Z,45.90
2018-11-22T15:51:30.453Z,42.27
2018-11-22T15:53:34.053Z,35.43
2018-11-22T15:55:37.662Z,39.23
2018-11-22T15:57:42.093Z,45.60
2018-11-22T15:59:45.793Z,43.20
2018-11-22T16:01:49.420Z,45.93
2018-11-22T16:03:53.149Z,46.50
2018-11-22T16:05:56.782Z,46.43
2018-11-22T16:08:00.354Z,45.73
2018-11-22T16:10:04.354Z,43.10
2018-11-22T16:12:07.994Z,38.03
2018-11-22T16:14:11.617Z,37.43
2018-11-22T16:16:15.149Z,37.23
2018-11-22T16:18:18.764Z,35.07
2018-11-22T16:20:22.395Z,35.37
2018-11-22T16:22:26.140Z,35.63
2018-11-22T16:24:29.991Z,36.57
2018-11-22T16:26:33.595Z,37.23
2018-11-22T16:28:37.157Z,40.20
2018-11-22T16:30:41.546Z,40.03
2018-11-22T16:32:45.531Z,35.93
2018-11-22T16:34:49.104Z,38.23
2018-11-22T16:36:53.233Z,36.93
2018-11-22T16:38:56.796Z,34.17
2018-11-22T16:41:00.399Z,33.87
2018-11-22T16:43:04.557Z,35.67
2018-11-22T16:45:16.053Z,33.87
2018-11-22T16:47:19.724Z,31.30
2018-11-22T16:49:23.461Z,33.57
2018-11-22T16:51:27.139Z,31.90
2018-11-22T16:53:30.777Z,32.80
2018-11-22T16:55:34.456Z,33.97
2018-11-22T16:57:38.149Z,34.03
2018-11-22T16:59:41.660Z,33.37
2018-11-22T17:01:45.266Z,77.33
2018-11-22T17:03:48.951Z,62.27
2018-11-22T17:05:53.769Z,52.27
2018-11-22T17:07:57.509Z,54.43
2018-11-22T17:10:01.228Z,44.07
2018-11-22T17:12:04.927Z,44.83
2018-11-22T17:14:08.554Z,39.47
2018-11-22T17:16:12.160Z,43.07
2018-11-22T17:18:15.868Z,43.07
2018-11-22T17:20:20.354Z,39.97
2018-11-22T17:22:24.137Z,58.17
2018-11-22T17:24:27.737Z,39.80
2018-11-22T17:26:31.804Z,47.50
2018-11-22T17:28:35.548Z,50.00
2018-11-22T17:30:40.690Z,39.57
2018-11-22T17:32:44.740Z,35.67
2018-11-22T17:34:48.353Z,34.57
2018-11-22T17:36:51.993Z,34.23
2018-11-22T17:38:55.628Z,32.10
2018-11-22T17:40:59.412Z,29.23
2018-11-22T17:43:03.085Z,30.67
2018-11-22T17:45:09.280Z,31.03
2018-11-22T17:47:13.000Z,30.80
2018-11-22T17:49:16.597Z,30.93
2018-11-22T17:51:20.252Z,30.27
2018-11-22T17:53:23.882Z,31.10
2018-11-22T17:55:28.334Z,28.90
2018-11-22T17:57:31.879Z,29.00
2018-11-22T17:59:35.490Z,31.57
2018-11-22T18:01:39.069Z,29.07
2018-11-22T18:03:43.742Z,29.00
2018-11-22T18:05:47.610Z,29.00
2018-11-22T18:07:51.185Z,29.13
2018-11-22T18:09:55.004Z,28.43
2018-11-22T18:11:58.666Z,28.33
2018-11-22T18:14:02.210Z,27.93
2018-11-22T18:16:06.192Z,30.10
2018-11-22T18:18:09.861Z,32.00
2018-11-22T18:20:17.249Z,30.57
2018-11-22T18:22:20.849Z,30.77
2018-11-22T18:24:24.461Z,29.73
2018-11-22T18:26:28.079Z,28.97
2018-11-22T18:28:31.770Z,27.77
2018-11-22T18:30:35.454Z,31.67
2018-11-22T18:32:40.057Z,29.80
2018-11-22T18:34:43.665Z,32.70
2018-11-22T18:36:47.361Z,44.07
2018-11-22T18:38:51.086Z,43.90
2018-11-22T18:40:54.738Z,50.87
2018-11-22T18:42:59.954Z,42.43
2018-11-22T18:45:03.635Z,39.43
2018-11-22T18:47:14.122Z,36.47
2018-11-22T18:49:18.961Z,33.57
2018-11-22T18:51:22.714Z,35.70
2018-11-22T18:53:26.301Z,40.83
2018-11-22T18:55:29.940Z,34.47
2018-11-22T18:57:33.738Z,34.60
2018-11-22T18:59:37.616Z,36.17
2018-11-22T19:01:44.870Z,38.77
2018-11-22T19:03:45.043Z,39.60
2018-11-22T19:05:48.684Z,39.30
2018-11-22T19:07:53.319Z,34.53
2018-11-22T19:09:57.076Z,36.03
2018-11-22T19:12:00.871Z,35.00
2018-11-22T19:14:04.684Z,37.20
2018-11-22T19:16:08.320Z,38.93
2018-11-22T19:18:12.655Z,39.57
2018-11-22T19:20:19.067Z,39.90
2018-11-22T19:22:22.713Z,38.50
2018-11-22T19:24:26.375Z,40.40
2018-11-22T19:26:30.040Z,37.23
2018-11-22T19:28:33.687Z,33.37
2018-11-22T19:30:39.612Z,38.33
2018-11-22T19:32:44.388Z,39.93
2018-11-22T19:34:48.349Z,36.47
2018-11-22T19:36:52.055Z,39.57
2018-11-22T19:38:55.645Z,38.47
2018-11-22T19:40:59.354Z,34.80
2018-11-22T19:43:04.201Z,36.37
2018-11-22T19:45:09.932Z,38.33
2018-11-22T19:47:13.546Z,34.53
2018-11-22T19:49:17.122Z,33.20
2018-11-22T19:51:20.934Z,34.83
2018-11-22T19:53:24.534Z,35.23
2018-11-22T19:55:30.667Z,31.87
2018-11-22T19:57:34.348Z,35.27
2018-11-22T19:59:37.940Z,34.43
2018-11-22T20:01:41.723Z,33.33
2018-11-22T20:03:45.385Z,32.70
2018-11-22T20:05:48.974Z,33.70
2018-11-22T20:07:54.313Z,33.93
2018-11-22T20:09:57.888Z,33.90
2018-11-22T20:12:01.527Z,37.57
2018-11-22T20:14:05.691Z,40.27
2018-11-22T20:16:09.382Z,37.90
2018-11-22T20:18:13.289Z,37.77
2018-11-22T20:20:18.144Z,37.57
2018-11-22T20:22:21.490Z,35.33
2018-11-22T20:24:25.225Z,35.90
2018-11-22T20:26:33.640Z,37.77
2018-11-22T20:28:37.350Z,41.03
2018-11-22T20:30:44.527Z,40.33
2018-11-22T20:32:48.327Z,40.03
2018-11-22T20:34:51.898Z,40.50
2018-11-22T20:36:55.832Z,41.10
2018-11-22T20:38:59.493Z,41.37
2018-11-22T20:41:03.136Z,36.77
2018-11-22T20:43:06.789Z,34.47
2018-11-22T20:45:12.295Z,32.97
2018-11-22T20:47:15.929Z,31.07
2018-11-22T20:49:22.460Z,36.13
2018-11-22T20:51:26.063Z,36.37
2018-11-22T20:53:29.870Z,33.30
2018-11-22T20:55:35.032Z,35.13
2018-11-22T20:57:38.664Z,34.20
2018-11-22T20:59:47.475Z,33.33
2018-11-22T21:01:51.802Z,35.40
2018-11-22T21:03:54.882Z,30.77
2018-11-22T21:05:58.539Z,32.53
2018-11-22T21:08:02.152Z,31.53
2018-11-22T21:10:07.868Z,31.27
2018-11-22T21:12:11.419Z,31.67
2018-11-22T21:14:15.068Z,35.17
2018-11-22T21:16:18.908Z,36.27
2018-11-22T21:18:22.510Z,36.90
2018-11-22T21:20:27.806Z,41.43
2018-11-22T21:22:31.426Z,39.70
2018-11-22T21:24:35.213Z,39.07
2018-11-22T21:26:38.921Z,39.17
2018-11-22T21:28:42.718Z,36.20
2018-11-22T21:30:46.338Z,37.73
2018-11-22T21:32:50.757Z,39.50
2018-11-22T21:34:54.673Z,35.10
2018-11-22T21:36:58.431Z,31.43
2018-11-22T21:39:02.035Z,29.60
2018-11-22T21:41:05.831Z,28.17
2018-11-22T21:43:09.509Z,29.27
2018-11-22T21:45:15.203Z,29.50
2018-11-22T21:47:18.909Z,30.13
2018-11-22T21:49:22.500Z,30.10
2018-11-22T21:51:26.269Z,31.30
2018-11-22T21:53:29.973Z,31.93
2018-11-22T21:55:33.650Z,32.67
2018-11-22T21:57:38.289Z,32.20
2018-11-22T21:59:42.029Z,30.80
2018-11-22T22:01:46.113Z,33.43
2018-11-22T22:03:49.874Z,33.23
2018-11-22T22:05:53.514Z,33.03
2018-11-22T22:07:57.101Z,32.57
2018-11-22T22:10:00.768Z,31.87
2018-11-22T22:12:04.408Z,33.23
2018-11-22T22:14:08.144Z,28.57
2018-11-22T22:16:11.776Z,29.27
2018-11-22T22:18:21.163Z,27.53
2018-11-22T22:20:21.482Z,26.80
2018-11-22T22:22:26.178Z,26.23
2018-11-22T22:24:30.793Z,29.10
2018-11-22T22:26:34.516Z,33.03
2018-11-22T22:28:38.102Z,35.03
2018-11-22T22:30:41.629Z,35.23
2018-11-22T22:32:46.143Z,36.57
2018-11-22T22:34:49.851Z,34.17
2018-11-22T22:36:53.581Z,32.23
2018-11-22T22:38:57.198Z,31.20
2018-11-22T22:41:00.837Z,32.37
2018-11-22T22:43:04.838Z,30.93
2018-11-22T22:45:08.633Z,31.93
2018-11-22T22:47:12.240Z,31.20
2018-11-22T22:49:15.922Z,31.43
2018-11-22T22:51:19.517Z,31.73
2018-11-22T22:53:23.077Z,31.47
2018-11-22T22:55:27.027Z,31.73
2018-11-22T22:57:30.652Z,31.53
2018-11-22T22:59:34.275Z,30.37
2018-11-22T23:01:38.055Z,29.23
2018-11-22T23:03:41.825Z,30.17
2018-11-22T23:05:45.497Z,28.97
2018-11-22T23:07:49.355Z,27.93
2018-11-22T23:09:53.043Z,29.83
2018-11-22T23:11:56.827Z,29.83
2018-11-22T23:14:00.473Z,29.83
2018-11-22T23:16:04.142Z,28.77
2018-11-22T23:18:07.688Z,29.93
2018-11-22T23:20:14.706Z,31.57
2018-11-22T23:22:18.350Z,29.03
2018-11-22T23:24:22.047Z,28.67
2018-11-22T23:26:25.684Z,28.20
2018-11-22T23:28:29.300Z,27.77
2018-11-22T23:30:34.225Z,27.87
2018-11-22T23:32:37.959Z,27.27
2018-11-22T23:34:41.517Z,26.47
2018-11-22T23:36:45.099Z,25.20
2018-11-22T23:38:48.673Z,26.87
2018-11-22T23:40:53.027Z,26.83
2018-11-22T23:42:56.692Z,27.27
2018-11-22T23:45:00.309Z,27.13
2018-11-22T23:47:06.588Z,28.90
2018-11-22T23:49:10.305Z,28.10
2018-11-22T23:51:13.905Z,28.03
2018-11-22T23:53:17.514Z,27.87
2018-11-22T23:55:21.162Z,30.37
2018-11-22T23:57:24.890Z,26.67
2018-11-22T23:59:28.933Z,27.57
